sensor_id;sensor_type;location;lat;lon;timestamp;pressure;altitude;pressure_sealevel;temperature;humidity
61742;BME280;47650;49.848;9.620;2023-07-24T00:01:06;98871.19;;;19.88;62.16
61742;BME280;47650;49.848;9.620;2023-07-24T00:03:32;98873.34;;;19.79;62.56
61742;BME280;47650;49.848;9.620;2023-07-24T00:05:58;98868.47;;;19.69;62.12
61742;BME280;47650;49.848;9.620;2023-07-24T00:08:24;98816.56;;;19.25;62.13
61742;BME280;47650;49.848;9.620;2023-07-24T00:10:49;98860.00;;;19.47;61.83
61742;BME280;47650;49.848;9.620;2023-07-24T00:13:15;98853.19;;;19.45;62.23
61742;BME280;47650;49.848;9.620;2023-07-24T00:15:40;98851.03;;;19.35;62.79
61742;BME280;47650;49.848;9.620;2023-07-24T00:18:05;98847.78;;;19.26;62.79
61742;BME280;47650;49.848;9.620;2023-07-24T00:20:30;98834.63;;;19.18;62.58
61742;BME280;47650;49.848;9.620;2023-07-24T00:22:56;98831.41;;;19.09;63.30
61742;BME280;47650;49.848;9.620;2023-07-24T00:25:22;98830.84;;;19.01;63.14
61742;BME280;47650;49.848;9.620;2023-07-24T00:27:47;98805.38;;;18.78;63.53
61742;BME280;47650;49.848;9.620;2023-07-24T00:30:13;98823.75;;;18.81;63.79
61742;BME280;47650;49.848;9.620;2023-07-24T00:32:38;98819.03;;;18.76;63.91
61742;BME280;47650;49.848;9.620;2023-07-24T00:35:04;98811.06;;;18.63;63.86
61742;BME280;47650;49.848;9.620;2023-07-24T00:37:29;98828.22;;;18.62;64.27
61742;BME280;47650;49.848;9.620;2023-07-24T00:39:55;98829.47;;;18.59;64.31
61742;BME280;47650;49.848;9.620;2023-07-24T00:42:20;98831.97;;;18.54;64.93
61742;BME280;47650;49.848;9.620;2023-07-24T00:44:45;98821.94;;;18.43;64.82
61742;BME280;47650;49.848;9.620;2023-07-24T00:47:11;98821.56;;;18.39;65.16
61742;BME280;47650;49.848;9.620;2023-07-24T00:49:36;98836.38;;;18.42;65.53
61742;BME280;47650;49.848;9.620;2023-07-24T00:52:02;98841.38;;;18.38;65.59
61742;BME280;47650;49.848;9.620;2023-07-24T00:54:31;98822.84;;;18.23;65.50
61742;BME280;47650;49.848;9.620;2023-07-24T00:56:57;98841.59;;;18.30;65.23
61742;BME280;47650;49.848;9.620;2023-07-24T00:59:23;98832.97;;;18.21;65.87
61742;BME280;47650;49.848;9.620;2023-07-24T01:01:48;98839.41;;;18.20;65.92
61742;BME280;47650;49.848;9.620;2023-07-24T01:04:14;98838.16;;;18.16;65.85
61742;BME280;47650;49.848;9.620;2023-07-24T01:06:40;98833.47;;;18.12;66.07
61742;BME280;47650;49.848;9.620;2023-07-24T01:09:05;98837.78;;;18.06;66.29
61742;BME280;47650;49.848;9.620;2023-07-24T01:11:38;98842.38;;;17.99;66.17
61742;BME280;47650;49.848;9.620;2023-07-24T01:14:21;98841.19;;;17.68;68.04
61742;BME280;47650;49.848;9.620;2023-07-24T01:16:49;98835.00;;;17.74;68.20
61742;BME280;47650;49.848;9.620;2023-07-24T01:19:26;98834.59;;;17.77;67.85
61742;BME280;47650;49.848;9.620;2023-07-24T01:27:45;98823.06;;;17.70;67.58
61742;BME280;47650;49.848;9.620;2023-07-24T01:30:18;98803.69;;;17.61;67.48
61742;BME280;47650;49.848;9.620;2023-07-24T01:32:44;98803.91;;;17.60;67.66
61742;BME280;47650;49.848;9.620;2023-07-24T01:35:11;98811.50;;;17.63;67.33
61742;BME280;47650;49.848;9.620;2023-07-24T01:37:37;98809.28;;;17.60;66.79
61742;BME280;47650;49.848;9.620;2023-07-24T01:40:08;98805.97;;;17.58;67.12
61742;BME280;47650;49.848;9.620;2023-07-24T01:42:35;98798.38;;;17.41;68.14
61742;BME280;47650;49.848;9.620;2023-07-24T01:45:03;98739.50;;;17.15;67.42
61742;BME280;47650;49.848;9.620;2023-07-24T01:47:29;98790.53;;;17.46;67.20
61742;BME280;47650;49.848;9.620;2023-07-24T01:49:55;98760.09;;;17.27;67.34
61742;BME280;47650;49.848;9.620;2023-07-24T01:52:20;98792.81;;;17.36;67.68
61742;BME280;47650;49.848;9.620;2023-07-24T01:54:46;98754.34;;;16.97;67.52
61742;BME280;47650;49.848;9.620;2023-07-24T01:57:11;98803.53;;;17.36;67.60
61742;BME280;47650;49.848;9.620;2023-07-24T01:59:38;98793.84;;;17.28;67.38
61742;BME280;47650;49.848;9.620;2023-07-24T02:02:04;98697.94;;;16.65;67.26
61742;BME280;47650;49.848;9.620;2023-07-24T02:04:29;98795.72;;;17.28;67.25
61742;BME280;47650;49.848;9.620;2023-07-24T02:06:57;98776.56;;;17.18;66.88
61742;BME280;47650;49.848;9.620;2023-07-24T02:09:23;98787.91;;;17.20;67.00
61742;BME280;47650;49.848;9.620;2023-07-24T02:11:49;98785.03;;;17.15;67.86
61742;BME280;47650;49.848;9.620;2023-07-24T02:14:15;98774.94;;;17.03;67.88
61742;BME280;47650;49.848;9.620;2023-07-24T02:16:42;98754.75;;;16.81;67.99
61742;BME280;47650;49.848;9.620;2023-07-24T02:19:08;98791.44;;;17.00;68.00
61742;BME280;47650;49.848;9.620;2023-07-24T02:21:33;98788.75;;;16.87;68.43
61742;BME280;47650;49.848;9.620;2023-07-24T02:23:59;98808.75;;;16.91;67.89
61742;BME280;47650;49.848;9.620;2023-07-24T02:26:24;98802.13;;;16.87;67.63
61742;BME280;47650;49.848;9.620;2023-07-24T02:28:50;98764.25;;;16.70;67.71
61742;BME280;47650;49.848;9.620;2023-07-24T02:31:15;98791.66;;;16.85;67.76
61742;BME280;47650;49.848;9.620;2023-07-24T02:33:41;98787.50;;;16.83;68.07
61742;BME280;47650;49.848;9.620;2023-07-24T02:36:06;98777.81;;;16.82;68.57
61742;BME280;47650;49.848;9.620;2023-07-24T02:38:31;98770.81;;;16.81;68.84
61742;BME280;47650;49.848;9.620;2023-07-24T02:40:58;98774.31;;;16.81;68.76
61742;BME280;47650;49.848;9.620;2023-07-24T02:43:23;98767.09;;;16.82;68.29
61742;BME280;47650;49.848;9.620;2023-07-24T02:45:48;98749.81;;;16.78;68.85
61742;BME280;47650;49.848;9.620;2023-07-24T02:48:13;98769.19;;;16.86;68.78
61742;BME280;47650;49.848;9.620;2023-07-24T02:50:39;98761.56;;;16.90;68.46
61742;BME280;47650;49.848;9.620;2023-07-24T02:53:05;98751.69;;;16.84;68.30
61742;BME280;47650;49.848;9.620;2023-07-24T02:55:30;98751.50;;;16.85;69.04
61742;BME280;47650;49.848;9.620;2023-07-24T02:57:55;98709.06;;;16.62;68.88
61742;BME280;47650;49.848;9.620;2023-07-24T03:00:22;98735.63;;;16.90;69.13
61742;BME280;47650;49.848;9.620;2023-07-24T03:02:47;98742.22;;;16.88;69.69
61742;BME280;47650;49.848;9.620;2023-07-24T03:05:12;98729.22;;;16.58;70.44
61742;BME280;47650;49.848;9.620;2023-07-24T03:07:38;98751.06;;;16.75;71.40
61742;BME280;47650;49.848;9.620;2023-07-24T03:10:04;98742.19;;;16.74;70.56
61742;BME280;47650;49.848;9.620;2023-07-24T03:12:30;98739.94;;;16.71;70.06
61742;BME280;47650;49.848;9.620;2023-07-24T03:14:56;98738.09;;;16.65;70.01
61742;BME280;47650;49.848;9.620;2023-07-24T03:17:22;98690.94;;;16.31;69.92
61742;BME280;47650;49.848;9.620;2023-07-24T03:19:48;98736.25;;;16.52;70.58
61742;BME280;47650;49.848;9.620;2023-07-24T03:22:15;98749.41;;;16.61;70.29
61742;BME280;47650;49.848;9.620;2023-07-24T03:24:40;98753.31;;;16.58;70.12
61742;BME280;47650;49.848;9.620;2023-07-24T03:27:06;98748.38;;;16.55;70.08
61742;BME280;47650;49.848;9.620;2023-07-24T03:29:31;98690.50;;;16.14;69.77
61742;BME280;47650;49.848;9.620;2023-07-24T03:31:56;98748.97;;;16.50;69.81
61742;BME280;47650;49.848;9.620;2023-07-24T03:34:22;98744.06;;;16.47;70.49
61742;BME280;47650;49.848;9.620;2023-07-24T03:36:47;98712.53;;;16.29;70.44
61742;BME280;47650;49.848;9.620;2023-07-24T03:39:12;98729.22;;;16.45;70.42
61742;BME280;47650;49.848;9.620;2023-07-24T03:41:38;98694.25;;;16.20;70.82
61742;BME280;47650;49.848;9.620;2023-07-24T03:44:05;98676.72;;;16.10;70.76
61742;BME280;47650;49.848;9.620;2023-07-24T03:46:32;98725.94;;;16.43;70.40
61742;BME280;47650;49.848;9.620;2023-07-24T03:48:57;98712.34;;;16.44;70.69
61742;BME280;47650;49.848;9.620;2023-07-24T03:51:23;98723.06;;;16.44;70.61
61742;BME280;47650;49.848;9.620;2023-07-24T03:53:49;98719.13;;;16.47;70.92
61742;BME280;47650;49.848;9.620;2023-07-24T03:56:14;98717.91;;;16.49;71.15
61742;BME280;47650;49.848;9.620;2023-07-24T03:58:40;98603.25;;;15.73;70.92
61742;BME280;47650;49.848;9.620;2023-07-24T04:01:07;98704.53;;;16.56;70.84
61742;BME280;47650;49.848;9.620;2023-07-24T04:03:33;98718.53;;;16.58;70.73
61742;BME280;47650;49.848;9.620;2023-07-24T04:05:58;98702.88;;;16.55;70.65
61742;BME280;47650;49.848;9.620;2023-07-24T04:08:25;98698.78;;;16.52;70.78
61742;BME280;47650;49.848;9.620;2023-07-24T04:10:50;98715.00;;;16.71;71.16
61742;BME280;47650;49.848;9.620;2023-07-24T04:13:15;98711.94;;;16.81;71.17
61742;BME280;47650;49.848;9.620;2023-07-24T04:15:41;98715.22;;;16.96;70.12
61742;BME280;47650;49.848;9.620;2023-07-24T04:18:06;98715.38;;;17.15;69.79
61742;BME280;47650;49.848;9.620;2023-07-24T04:20:32;98699.50;;;17.26;69.24
61742;BME280;47650;49.848;9.620;2023-07-24T04:22:57;98713.00;;;17.52;67.09
61742;BME280;47650;49.848;9.620;2023-07-24T04:25:23;98710.47;;;17.70;67.38
61742;BME280;47650;49.848;9.620;2023-07-24T04:27:48;98700.03;;;17.94;66.49
61742;BME280;47650;49.848;9.620;2023-07-24T04:30:14;98703.22;;;18.16;66.00
61742;BME280;47650;49.848;9.620;2023-07-24T04:32:41;98704.31;;;18.33;65.24
61742;BME280;47650;49.848;9.620;2023-07-24T04:35:07;98709.69;;;18.33;64.67
61742;BME280;47650;49.848;9.620;2023-07-24T04:37:32;98689.38;;;18.44;65.04
61742;BME280;47650;49.848;9.620;2023-07-24T04:39:58;98699.31;;;18.69;64.45
61742;BME280;47650;49.848;9.620;2023-07-24T04:42:24;98699.78;;;18.84;64.25
61742;BME280;47650;49.848;9.620;2023-07-24T04:44:50;98693.16;;;18.87;64.53
61742;BME280;47650;49.848;9.620;2023-07-24T04:47:16;98651.56;;;18.71;64.22
61742;BME280;47650;49.848;9.620;2023-07-24T04:49:41;98691.91;;;19.08;63.91
61742;BME280;47650;49.848;9.620;2023-07-24T04:52:07;98695.88;;;19.24;63.42
61742;BME280;47650;49.848;9.620;2023-07-24T04:54:33;98697.28;;;19.45;62.60
61742;BME280;47650;49.848;9.620;2023-07-24T04:56:58;98688.25;;;19.58;61.79
61742;BME280;47650;49.848;9.620;2023-07-24T04:59:24;98673.19;;;19.68;61.61
61742;BME280;47650;49.848;9.620;2023-07-24T05:01:50;98669.03;;;19.72;61.80
61742;BME280;47650;49.848;9.620;2023-07-24T05:04:15;98682.38;;;19.79;61.97
61742;BME280;47650;49.848;9.620;2023-07-24T05:06:41;98669.03;;;19.72;62.35
61742;BME280;47650;49.848;9.620;2023-07-24T05:09:06;98690.19;;;19.99;62.43
61742;BME280;47650;49.848;9.620;2023-07-24T05:11:32;98695.22;;;19.96;61.83
61742;BME280;47650;49.848;9.620;2023-07-24T05:13:58;98677.81;;;20.10;60.94
61742;BME280;47650;49.848;9.620;2023-07-24T05:16:26;98656.97;;;19.94;61.10
61742;BME280;47650;49.848;9.620;2023-07-24T05:18:52;98673.88;;;20.36;60.52
61742;BME280;47650;49.848;9.620;2023-07-24T05:21:19;98666.66;;;20.60;59.53
61742;BME280;47650;49.848;9.620;2023-07-24T05:23:44;98660.16;;;20.80;59.53
61742;BME280;47650;49.848;9.620;2023-07-24T05:26:14;98665.03;;;20.95;59.30
61742;BME280;47650;49.848;9.620;2023-07-24T05:28:42;98663.63;;;21.04;57.95
61742;BME280;47650;49.848;9.620;2023-07-24T05:31:07;98648.84;;;21.18;58.04
61742;BME280;47650;49.848;9.620;2023-07-24T05:33:34;98641.91;;;21.11;58.27
61742;BME280;47650;49.848;9.620;2023-07-24T05:36:01;98631.47;;;21.14;57.90
61742;BME280;47650;49.848;9.620;2023-07-24T05:38:27;98641.53;;;21.31;57.09
61742;BME280;47650;49.848;9.620;2023-07-24T05:41:02;98640.59;;;21.66;56.22
61742;BME280;47650;49.848;9.620;2023-07-24T05:43:28;98627.72;;;21.85;55.34
61742;BME280;47650;49.848;9.620;2023-07-24T05:45:55;98644.78;;;22.19;54.87
61742;BME280;47650;49.848;9.620;2023-07-24T05:48:22;98644.50;;;22.49;54.00
61742;BME280;47650;49.848;9.620;2023-07-24T05:50:48;98652.66;;;22.54;53.38
61742;BME280;47650;49.848;9.620;2023-07-24T05:53:14;98608.03;;;21.84;54.90
61742;BME280;47650;49.848;9.620;2023-07-24T05:55:43;98652.84;;;22.31;54.57
61742;BME280;47650;49.848;9.620;2023-07-24T05:58:09;98656.84;;;22.45;53.99
61742;BME280;47650;49.848;9.620;2023-07-24T06:00:34;98640.31;;;22.59;52.91
61742;BME280;47650;49.848;9.620;2023-07-24T06:03:00;98615.75;;;22.60;52.85
61742;BME280;47650;49.848;9.620;2023-07-24T06:05:25;98643.94;;;22.86;52.70
61742;BME280;47650;49.848;9.620;2023-07-24T06:07:51;98626.31;;;22.84;51.65
61742;BME280;47650;49.848;9.620;2023-07-24T06:10:17;98617.78;;;22.92;51.37
61742;BME280;47650;49.848;9.620;2023-07-24T06:12:42;98639.59;;;23.24;51.30
61742;BME280;47650;49.848;9.620;2023-07-24T06:15:08;98624.84;;;23.37;50.61
61742;BME280;47650;49.848;9.620;2023-07-24T06:17:34;98629.78;;;23.40;50.94
61742;BME280;47650;49.848;9.620;2023-07-24T06:19:59;98629.38;;;23.54;49.92
61742;BME280;47650;49.848;9.620;2023-07-24T06:22:24;98629.78;;;23.40;49.83
61742;BME280;47650;49.848;9.620;2023-07-24T06:24:52;98642.06;;;23.53;50.17
61742;BME280;47650;49.848;9.620;2023-07-24T06:27:17;98655.00;;;22.85;51.95
61742;BME280;47650;49.848;9.620;2023-07-24T06:29:43;98652.38;;;22.73;53.02
61742;BME280;47650;49.848;9.620;2023-07-24T06:32:08;98651.59;;;22.72;52.71
61742;BME280;47650;49.848;9.620;2023-07-24T06:34:35;98640.34;;;23.03;51.74
61742;BME280;47650;49.848;9.620;2023-07-24T06:37:03;98649.47;;;22.58;52.51
61742;BME280;47650;49.848;9.620;2023-07-24T06:39:28;98636.59;;;23.04;51.87
61742;BME280;47650;49.848;9.620;2023-07-24T06:41:56;98618.84;;;23.30;51.31
61742;BME280;47650;49.848;9.620;2023-07-24T06:44:22;98625.19;;;23.68;50.38
61742;BME280;47650;49.848;9.620;2023-07-24T06:46:49;98633.09;;;23.97;49.10
61742;BME280;47650;49.848;9.620;2023-07-24T06:49:14;98631.63;;;24.16;47.96
61742;BME280;47650;49.848;9.620;2023-07-24T06:51:40;98635.06;;;23.30;50.41
61742;BME280;47650;49.848;9.620;2023-07-24T06:54:06;98642.06;;;22.70;51.84
61742;BME280;47650;49.848;9.620;2023-07-24T06:56:32;98645.63;;;22.92;51.86
61742;BME280;47650;49.848;9.620;2023-07-24T06:58:58;98636.28;;;23.44;51.07
61742;BME280;47650;49.848;9.620;2023-07-24T07:01:23;98610.59;;;23.69;50.69
61742;BME280;47650;49.848;9.620;2023-07-24T07:03:49;98624.56;;;24.15;49.84
61742;BME280;47650;49.848;9.620;2023-07-24T07:06:14;98622.53;;;24.28;49.29
61742;BME280;47650;49.848;9.620;2023-07-24T07:08:39;98612.94;;;23.88;49.82
61742;BME280;47650;49.848;9.620;2023-07-24T07:11:04;98538.09;;;23.98;48.80
61742;BME280;47650;49.848;9.620;2023-07-24T07:13:30;98557.09;;;24.51;47.71
61742;BME280;47650;49.848;9.620;2023-07-24T07:15:55;98605.66;;;25.06;47.18
61742;BME280;47650;49.848;9.620;2023-07-24T07:18:21;98579.50;;;23.99;48.20
61742;BME280;47650;49.848;9.620;2023-07-24T07:20:50;98600.59;;;24.72;47.46
61742;BME280;47650;49.848;9.620;2023-07-24T07:23:17;98604.88;;;24.25;48.15
61742;BME280;47650;49.848;9.620;2023-07-24T07:25:44;98591.44;;;23.49;50.62
61742;BME280;47650;49.848;9.620;2023-07-24T07:28:11;98596.59;;;24.42;48.63
61742;BME280;47650;49.848;9.620;2023-07-24T07:30:36;98565.78;;;24.53;47.69
61742;BME280;47650;49.848;9.620;2023-07-24T07:33:02;98595.19;;;25.30;46.50
61742;BME280;47650;49.848;9.620;2023-07-24T07:35:28;98593.34;;;25.51;46.09
61742;BME280;47650;49.848;9.620;2023-07-24T07:37:54;98588.56;;;25.94;44.85
61742;BME280;47650;49.848;9.620;2023-07-24T07:40:20;98578.75;;;26.24;44.15
61742;BME280;47650;49.848;9.620;2023-07-24T07:42:48;98577.53;;;26.87;43.99
61742;BME280;47650;49.848;9.620;2023-07-24T07:45:13;98574.94;;;25.89;44.80
61742;BME280;47650;49.848;9.620;2023-07-24T07:47:39;98534.63;;;26.68;42.92
61742;BME280;47650;49.848;9.620;2023-07-24T07:50:05;98574.25;;;26.95;42.63
61742;BME280;47650;49.848;9.620;2023-07-24T07:52:31;98527.25;;;26.89;42.79
61742;BME280;47650;49.848;9.620;2023-07-24T07:54:56;98572.78;;;26.22;44.02
61742;BME280;47650;49.848;9.620;2023-07-24T07:57:21;98580.34;;;25.58;45.85
61742;BME280;47650;49.848;9.620;2023-07-24T07:59:46;98563.78;;;25.65;45.08
61742;BME280;47650;49.848;9.620;2023-07-24T08:02:12;98589.59;;;25.78;46.02
61742;BME280;47650;49.848;9.620;2023-07-24T08:04:38;98565.44;;;26.33;44.46
61742;BME280;47650;49.848;9.620;2023-07-24T08:07:04;98563.66;;;26.93;43.29
61742;BME280;47650;49.848;9.620;2023-07-24T08:09:29;98573.75;;;26.88;43.09
61742;BME280;47650;49.848;9.620;2023-07-24T08:11:57;98542.53;;;27.30;42.18
61742;BME280;47650;49.848;9.620;2023-07-24T08:14:22;98582.84;;;27.17;42.77
61742;BME280;47650;49.848;9.620;2023-07-24T08:16:50;98569.63;;;27.50;41.47
61742;BME280;47650;49.848;9.620;2023-07-24T08:19:17;98560.22;;;26.57;42.23
61742;BME280;47650;49.848;9.620;2023-07-24T08:21:43;98541.75;;;26.43;42.59
61742;BME280;47650;49.848;9.620;2023-07-24T08:24:09;98540.97;;;25.81;44.13
61742;BME280;47650;49.848;9.620;2023-07-24T08:26:35;98588.16;;;26.88;43.18
61742;BME280;47650;49.848;9.620;2023-07-24T08:29:00;98600.03;;;27.08;42.86
61742;BME280;47650;49.848;9.620;2023-07-24T08:31:25;98571.09;;;26.62;43.83
61742;BME280;47650;49.848;9.620;2023-07-24T08:33:50;98601.03;;;26.31;43.74
61742;BME280;47650;49.848;9.620;2023-07-24T08:36:16;98585.22;;;26.64;43.07
61742;BME280;47650;49.848;9.620;2023-07-24T08:38:41;98599.09;;;26.62;42.98
61742;BME280;47650;49.848;9.620;2023-07-24T08:41:12;98600.50;;;26.29;43.91
61742;BME280;47650;49.848;9.620;2023-07-24T08:43:42;98598.84;;;25.92;45.25
61742;BME280;47650;49.848;9.620;2023-07-24T08:46:08;98552.09;;;26.41;43.48
61742;BME280;47650;49.848;9.620;2023-07-24T08:48:36;98575.34;;;27.54;42.32
61742;BME280;47650;49.848;9.620;2023-07-24T08:51:03;98571.28;;;28.20;40.88
61742;BME280;47650;49.848;9.620;2023-07-24T08:53:29;98564.81;;;28.16;41.09
61742;BME280;47650;49.848;9.620;2023-07-24T08:55:59;98551.44;;;27.80;40.69
61742;BME280;47650;49.848;9.620;2023-07-24T08:58:25;98557.53;;;27.32;41.86
61742;BME280;47650;49.848;9.620;2023-07-24T09:00:50;98552.56;;;27.79;41.40
61742;BME280;47650;49.848;9.620;2023-07-24T09:03:17;98486.97;;;28.05;40.37
61742;BME280;47650;49.848;9.620;2023-07-24T09:05:44;98534.72;;;28.26;39.88
61742;BME280;47650;49.848;9.620;2023-07-24T09:08:09;98531.81;;;28.71;39.95
61742;BME280;47650;49.848;9.620;2023-07-24T09:10:34;98539.25;;;28.12;41.11
61742;BME280;47650;49.848;9.620;2023-07-24T09:13:00;98535.03;;;27.01;42.68
61742;BME280;47650;49.848;9.620;2023-07-24T09:15:25;98550.97;;;27.73;41.08
61742;BME280;47650;49.848;9.620;2023-07-24T09:17:52;98546.47;;;27.08;42.12
61742;BME280;47650;49.848;9.620;2023-07-24T09:20:19;98511.41;;;27.01;41.90
61742;BME280;47650;49.848;9.620;2023-07-24T09:22:52;98537.53;;;27.47;41.64
61742;BME280;47650;49.848;9.620;2023-07-24T09:25:40;98532.88;;;27.03;42.56
61742;BME280;47650;49.848;9.620;2023-07-24T09:28:16;98537.47;;;26.17;45.25
61742;BME280;47650;49.848;9.620;2023-07-24T09:30:51;98520.09;;;26.02;44.85
61742;BME280;47650;49.848;9.620;2023-07-24T09:33:17;98504.78;;;26.58;43.87
61742;BME280;47650;49.848;9.620;2023-07-24T09:35:43;98503.09;;;26.77;42.91
61742;BME280;47650;49.848;9.620;2023-07-24T09:38:10;98513.97;;;27.67;42.13
61742;BME280;47650;49.848;9.620;2023-07-24T09:40:45;98497.47;;;29.32;38.74
61742;BME280;47650;49.848;9.620;2023-07-24T09:43:25;98499.03;;;29.19;38.05
61742;BME280;47650;49.848;9.620;2023-07-24T09:45:52;98494.03;;;29.78;36.94
61742;BME280;47650;49.848;9.620;2023-07-24T09:48:19;98483.41;;;29.58;37.88
61742;BME280;47650;49.848;9.620;2023-07-24T09:50:46;98473.44;;;30.83;35.65
61742;BME280;47650;49.848;9.620;2023-07-24T09:53:20;98434.94;;;31.39;34.00
61742;BME280;47650;49.848;9.620;2023-07-24T09:55:52;98456.81;;;33.39;31.51
61742;BME280;47650;49.848;9.620;2023-07-24T09:58:23;98457.44;;;34.18;29.54
61742;BME280;47650;49.848;9.620;2023-07-24T10:00:49;98454.50;;;33.59;30.57
61742;BME280;47650;49.848;9.620;2023-07-24T10:03:16;98442.59;;;34.79;29.34
61742;BME280;47650;49.848;9.620;2023-07-24T10:05:47;98452.59;;;35.47;28.10
61742;BME280;47650;49.848;9.620;2023-07-24T10:08:16;98475.84;;;33.01;31.27
61742;BME280;47650;49.848;9.620;2023-07-24T10:10:42;98478.59;;;32.92;32.00
61742;BME280;47650;49.848;9.620;2023-07-24T10:13:09;98467.53;;;30.90;35.12
61742;BME280;47650;49.848;9.620;2023-07-24T10:15:36;98483.63;;;30.41;35.66
61742;BME280;47650;49.848;9.620;2023-07-24T10:18:04;98471.81;;;29.66;37.39
61742;BME280;47650;49.848;9.620;2023-07-24T10:20:40;98469.84;;;29.53;37.77
61742;BME280;47650;49.848;9.620;2023-07-24T10:23:11;98461.63;;;29.20;38.02
61742;BME280;47650;49.848;9.620;2023-07-24T10:25:38;98442.34;;;28.73;39.22
61742;BME280;47650;49.848;9.620;2023-07-24T10:28:08;98471.78;;;29.33;38.15
61742;BME280;47650;49.848;9.620;2023-07-24T10:30:39;98486.34;;;28.13;40.20
61742;BME280;47650;49.848;9.620;2023-07-24T10:33:17;98481.44;;;28.63;39.42
61742;BME280;47650;49.848;9.620;2023-07-24T10:35:45;98458.16;;;27.35;41.29
61742;BME280;47650;49.848;9.620;2023-07-24T10:38:16;98508.31;;;27.58;41.47
61742;BME280;47650;49.848;9.620;2023-07-24T10:40:45;98516.16;;;27.20;42.26
61742;BME280;47650;49.848;9.620;2023-07-24T10:43:17;98496.50;;;27.38;41.78
61742;BME280;47650;49.848;9.620;2023-07-24T10:45:48;98507.72;;;27.21;43.06
61742;BME280;47650;49.848;9.620;2023-07-24T10:48:14;98485.41;;;27.64;41.85
61742;BME280;47650;49.848;9.620;2023-07-24T10:50:44;98494.66;;;27.63;41.46
61742;BME280;47650;49.848;9.620;2023-07-24T10:53:11;98501.94;;;26.83;43.32
61742;BME280;47650;49.848;9.620;2023-07-24T10:55:37;98506.53;;;27.43;42.33
61742;BME280;47650;49.848;9.620;2023-07-24T10:58:05;98494.72;;;27.58;41.99
61742;BME280;47650;49.848;9.620;2023-07-24T11:00:31;98505.50;;;27.34;42.11
61742;BME280;47650;49.848;9.620;2023-07-24T11:02:56;98499.22;;;26.89;43.46
61742;BME280;47650;49.848;9.620;2023-07-24T11:05:22;98491.81;;;27.79;41.68
61742;BME280;47650;49.848;9.620;2023-07-24T11:07:48;98486.75;;;26.82;43.83
61742;BME280;47650;49.848;9.620;2023-07-24T11:10:18;98479.47;;;26.57;43.91
61742;BME280;47650;49.848;9.620;2023-07-24T11:12:44;98479.97;;;26.75;43.14
61742;BME280;47650;49.848;9.620;2023-07-24T11:15:11;98477.59;;;27.13;42.16
61742;BME280;47650;49.848;9.620;2023-07-24T11:17:39;98469.38;;;26.73;43.34
61742;BME280;47650;49.848;9.620;2023-07-24T11:20:13;98448.94;;;27.31;41.75
61742;BME280;47650;49.848;9.620;2023-07-24T11:22:40;98442.78;;;27.79;41.60
61742;BME280;47650;49.848;9.620;2023-07-24T11:25:06;98482.00;;;27.48;41.91
61742;BME280;47650;49.848;9.620;2023-07-24T11:27:31;98487.28;;;26.85;43.94
61742;BME280;47650;49.848;9.620;2023-07-24T11:29:57;98484.63;;;26.59;45.21
61742;BME280;47650;49.848;9.620;2023-07-24T11:32:24;98436.91;;;26.32;46.97
61742;BME280;47650;49.848;9.620;2023-07-24T11:34:51;98476.31;;;27.45;45.55
61742;BME280;47650;49.848;9.620;2023-07-24T11:37:17;98483.88;;;27.08;46.40
61742;BME280;47650;49.848;9.620;2023-07-24T11:40:04;98473.31;;;27.46;45.19
61742;BME280;47650;49.848;9.620;2023-07-24T11:42:47;98443.22;;;26.88;46.02
61742;BME280;47650;49.848;9.620;2023-07-24T11:45:15;98472.16;;;27.52;45.44
61742;BME280;47650;49.848;9.620;2023-07-24T11:47:44;98485.69;;;27.28;45.72
61742;BME280;47650;49.848;9.620;2023-07-24T11:50:13;98468.50;;;27.67;43.87
61742;BME280;47650;49.848;9.620;2023-07-24T11:55:08;98429.50;;;27.72;43.74
61742;BME280;47650;49.848;9.620;2023-07-24T11:57:33;98466.00;;;28.78;42.23
61742;BME280;47650;49.848;9.620;2023-07-24T11:59:59;98466.81;;;28.30;43.23
61742;BME280;47650;49.848;9.620;2023-07-24T12:02:27;98443.94;;;29.83;39.86
61742;BME280;47650;49.848;9.620;2023-07-24T12:04:56;98467.03;;;28.82;41.56
61742;BME280;47650;49.848;9.620;2023-07-24T12:07:34;98445.59;;;29.65;39.50
61742;BME280;47650;49.848;9.620;2023-07-24T12:10:05;98448.41;;;29.60;39.58
61742;BME280;47650;49.848;9.620;2023-07-24T12:12:45;98454.72;;;29.41;38.95
61742;BME280;47650;49.848;9.620;2023-07-24T12:15:13;98459.50;;;28.74;39.87
61742;BME280;47650;49.848;9.620;2023-07-24T12:17:39;98444.91;;;28.64;40.21
61742;BME280;47650;49.848;9.620;2023-07-24T12:20:06;98442.41;;;28.68;41.30
61742;BME280;47650;49.848;9.620;2023-07-24T12:22:33;98404.84;;;28.17;42.46
61742;BME280;47650;49.848;9.620;2023-07-24T12:24:59;98440.78;;;28.86;41.73
61742;BME280;47650;49.848;9.620;2023-07-24T12:27:24;98431.88;;;28.99;40.98
61742;BME280;47650;49.848;9.620;2023-07-24T12:29:51;98418.41;;;29.41;40.58
61742;BME280;47650;49.848;9.620;2023-07-24T12:32:16;98392.50;;;28.86;40.20
61742;BME280;47650;49.848;9.620;2023-07-24T12:34:43;98424.22;;;30.14;38.48
61742;BME280;47650;49.848;9.620;2023-07-24T12:37:09;98409.56;;;31.47;36.29
61742;BME280;47650;49.848;9.620;2023-07-24T12:39:35;98400.50;;;33.80;32.71
61742;BME280;47650;49.848;9.620;2023-07-24T12:42:02;98411.84;;;32.65;33.02
61742;BME280;47650;49.848;9.620;2023-07-24T12:44:27;98403.66;;;32.16;33.70
61742;BME280;47650;49.848;9.620;2023-07-24T12:46:54;98341.50;;;35.00;29.63
61742;BME280;47650;49.848;9.620;2023-07-24T12:49:19;98399.59;;;34.87;30.21
61742;BME280;47650;49.848;9.620;2023-07-24T12:51:45;98383.69;;;35.47;29.63
61742;BME280;47650;49.848;9.620;2023-07-24T12:54:12;98378.91;;;36.55;27.75
61742;BME280;47650;49.848;9.620;2023-07-24T12:56:37;98387.56;;;34.49;30.57
61742;BME280;47650;49.848;9.620;2023-07-24T12:59:03;98343.44;;;38.01;26.49
61742;BME280;47650;49.848;9.620;2023-07-24T13:01:29;98375.13;;;36.72;27.87
61742;BME280;47650;49.848;9.620;2023-07-24T13:03:55;98375.09;;;33.83;30.48
61742;BME280;47650;49.848;9.620;2023-07-24T13:06:21;98331.66;;;33.68;31.42